x

Portland 12 Nm Southeast Of Portland,me (44007) Wave Buoy

10:50 - Mon 21st Apr 2014 All times are EDT. -4 hours from GMT.

  • Sig Wave height 2.6ft
  • Swell Direction
  • Peak Period 4s
  • Average Period 4s
  • Wind
    18mph, 22mph gusts
  • Sea Temp 42°f
  • Luft Temp 42°f
  • Sea Pressure 1019.8mb
  • Portland 12 Nm Southeast Of Portland,me
  • Portland 12 Nm Southeast Of Portland,me

More Historic Weather Station data

Upgrade to MSW Pro to gain access to the past 30 days of data for over 8000 Wavebouys and Weather Stations around the globe.

Join Pro

Comparision Forecast

View Surf forecast
   
Mo 04/21 10:50 2.5ft 4s 4s 18 22 mph 1019.8mb 42f 42f
9:50 2.5ft 4s 4s 18 22 mph 1020.7mb 42f 42f
8:50 2.5ft 4s 4s 18 22 mph 1021.1mb 42f 42f
7:50 2.5ft 4s 4s 18 20 mph 1021.9mb 42f 42f
6:50 2.5ft 4s 4s 18 20 mph 1022mb 42f 42f
5:50 2.5ft 4s 4s 16 18 mph 1022.4mb 42f 42f
4:50 2.5ft 4s 4s 13 16 mph 1022.8mb 42f 42f
3:50 2.5ft 4s 4s 13 16 mph 1023.2mb 42f 42f
2:50 2.5ft 4s 4s 13 16 mph 1024.1mb 42f 41f
1:50 2.5ft 4s 4s 13 16 mph 1025.3mb 42f 41f
12:50 2.5ft 4s 4s 16 18 mph 1026.3mb 42f 41f
So 04/20 11:50 2.5ft 4s 4s 16 18 mph 1027.3mb 42f 42f
10:50 2.5ft 4s 4s 13 16 mph 1027.8mb 42f 41f
9:50 2ft 8s 4s 16 18 mph 1028.4mb 42f 42f
8:50 2ft 4s 4s 16 18 mph 1028.8mb 42f 42f
7:50 2ft 3s 4s 13 16 mph 1029.1mb 42f 42f
6:50 2ft 3s 4s 16 18 mph 1029.4mb 42f 42f
5:50 2ft 3s 3s 16 18 mph 1029.9mb 42f 42f
4:50 2ft 9s 4s 16 20 mph 1030.6mb 43f 42f
3:50 1.6ft 10s 4s 18 20 mph 1031mb 43f 42f
2:50 1.6ft 7s 5s 16 20 mph 1031.3mb 43f 41f
1:50 1.6ft 9s 6s 13 16 mph 1031.7mb 44f 41f
12:50 2ft 8s 6s 11 13 mph 1032.5mb 43f 42f
11:50 2.5ft 8s 6s 9 11 mph 1032.9mb 43f 42f
10:50 2ft 9s 6s  -  2 mph 1033.8mb 42f 42f
9:50 2ft 9s 6s 9
mph
1033.6mb 41f 41f
8:50 2.5ft 9s 5s 9
mph
1033.7mb 41f 40f
7:50 2.5ft 9s 5s 16 20 mph 1032.7mb 41f 40f
6:50 2ft 9s 5s 16 18 mph 1032.2mb 41f 40f
5:50 2ft 9s 6s 16 18 mph 1031.5mb 41f 40f
4:50 2.5ft 11s 6s 11 13 mph 1030.9mb 41f 41f
3:50 2.5ft 10s 7s 7 9 mph 1030.6mb 41f 42f
2:50 2.5ft 10s 7s 11
mph
1030mb 41f 42f
1:50 3ft 8s 8s 11
mph
1029.8mb 41f 42f
12:50 3.5ft 11s 8s 11
mph
1029.9mb 41f 43f
Sa 04/19 11:50 3.5ft 9s 7s 9 11 mph 1029.5mb 41f 44f
10:50 3.5ft 9s 6s 11 13 mph 1029.4mb 42f 45f
9:50 3.5ft 9s 7s 11 13 mph 1028.7mb 41f 44f
8:50 4ft 8s 7s 16 18 mph 1027.1mb 41f 45f
7:50 3.5ft 9s 7s 13 16 mph 1026mb 41f 47f
6:50 3.5ft 9s 5s 20 25 mph 1024.5mb 41f 47f
5:50 3ft 9s 4s 22 27 mph 1024mb 41f 48f
4:50 3.5ft 9s 5s 20 25 mph 1023mb 41f 48f
3:50 3.5ft 10s 6s 22 25 mph 1021.7mb 41f 49f
2:50 3.5ft 10s 6s 16 20 mph 1021.2mb 41f 49f
1:50 4.5ft 9s 7s 9 13 mph 1021.5mb 41f 48f
12:50 4.5ft 9s 7s 16 22 mph 1021.4mb 41f 50f
11:50 4.5ft 9s 7s 16 20 mph 1021.3mb 41f 49f
10:50 5ft 8s 8s  -  2 mph 1021.4mb 42f 41f
9:50 4.5ft 9s 7s 4 7 mph 1021.3mb 41f 39f
8:50 4.5ft 9s 7s 9 11 mph 1021.3mb 40f 39f
7:50 5ft 9s 7s 4 7 mph 1021.4mb 40f 37f
6:50 4.5ft 10s 7s 11 13 mph 1021.1mb 40f 37f
5:50 4ft 10s 6s 11 13 mph 1020.8mb 40f 37f
4:50 4.5ft 10s 7s 13 16 mph 1020.7mb 40f 37f
3:50 5ft 9s 7s 11 13 mph 1021.2mb 40f 37f
2:50 5ft 10s 7s 9 11 mph 1021.4mb 40f 38f
1:50 5ft 10s 7s 11
mph
1022.5mb 40f 38f
12:50 5.5ft 8s 7s 11 13 mph 1023.7mb 40f 38f
Fr 04/18 11:50 6ft 9s 7s 11 13 mph 1024.2mb 40f 38f
10:50 6ft 9s 7s 11 13 mph 1025.1mb 40f 38f
9:50 6ft 9s 7s 9 11 mph 1025.5mb 40f 38f
8:50 5.5ft 9s 7s 7 9 mph 1026.8mb 40f 38f
7:50 5ft 9s 7s 9 11 mph 1026.4mb 40f 37f
6:50 5.5ft 9s 7s 4 7 mph 1027.8mb 40f 37f
5:50 5ft 9s 7s 7 9 mph 1028.3mb 41f 37f
4:50 4.5ft 9s 6s 7 9 mph 1029.6mb 41f 38f
3:50 5ft 9s 7s 7 9 mph 1030.4mb 41f 37f
2:50 4.5ft 9s 6s 7 9 mph 1031.3mb 41f 38f
1:50 4.5ft 8s 6s 4 7 mph 1032.2mb 41f 38f
12:50 4.5ft 9s 6s 9 11 mph 1032.8mb 40f 38f
11:50 4.5ft 8s 6s 9
mph
1034.4mb 40f 38f
10:50 5ft 8s 6s 9
mph
1036mb 40f 38f
9:50 4.5ft 8s 6s 11 13 mph 1035.6mb 40f 37f
8:50 3.5ft 8s 5s 13 16 mph 1034.9mb 40f 36f
7:50 3.5ft 8s 5s 16 20 mph 1035.3mb 39f 35f
6:50 3ft 9s 5s 16 18 mph 1035.8mb 39f 34f
5:50 2.5ft 9s 5s 11 13 mph 1037.4mb 39f 35f
4:50 3ft 9s 5s 13 16 mph 1037.3mb 40f 34f
3:50 3ft 7s 5s 13 16 mph 1037.2mb 40f 35f
2:50 3ft 7s 6s 11 13 mph 1037.3mb 40f 36f
1:50 3.5ft 8s 6s 7 9 mph 1037.7mb 40f 37f
12:50 3.5ft 7s 5s 7 9 mph 1038.7mb 40f 37f
Do 04/17 11:50 3.5ft 8s 6s 7 9 mph 1039.6mb 40f 37f
10:50 3.5ft 7s 6s 4 7 mph 1040.3mb 40f 37f
9:50 3.5ft 8s 5s 2
mph
1041mb 40f 36f
8:50 3.5ft 6s 5s 2 4 mph 1041.6mb 40f 36f
7:50 3.5ft 9s 5s 7 9 mph 1041.7mb 40f 36f
6:50 3.5ft 9s 5s 9 11 mph 1041.9mb 40f 36f
5:50 3.5ft 9s 5s 11 13 mph 1042.2mb 40f 36f
4:50 3.5ft 6s 5s 13 18 mph 1042.1mb 40f 36f
3:50 3.5ft 6s 5s 13 16 mph 1042.2mb 40f 35f